createdAt,value
2019-02-05T00:00:09.364Z,2
2019-02-05T00:01:09.351Z,2
2019-02-05T00:02:09.303Z,2
2019-02-05T00:03:09.634Z,2
2019-02-05T00:04:09.311Z,2
2019-02-05T00:05:09.419Z,2
2019-02-05T00:06:09.329Z,2
2019-02-05T00:07:09.311Z,2
2019-02-05T00:08:09.341Z,2
2019-02-05T00:09:09.322Z,2
2019-02-05T00:10:09.357Z,2
2019-02-05T00:11:09.409Z,2
2019-02-05T00:12:09.303Z,2
2019-02-05T00:13:09.320Z,2
2019-02-05T00:14:09.312Z,2
2019-02-05T00:15:09.349Z,2
2019-02-05T00:16:09.362Z,2
2019-02-05T00:17:09.345Z,2
2019-02-05T00:18:09.300Z,2
2019-02-05T00:19:09.300Z,2
2019-02-05T00:20:09.335Z,2
2019-02-05T00:21:09.400Z,2
2019-02-05T00:22:09.343Z,2
2019-02-05T00:23:09.314Z,2
2019-02-05T00:24:09.323Z,2
2019-02-05T00:25:09.368Z,2
2019-02-05T00:26:09.308Z,2
2019-02-05T00:27:09.399Z,2
2019-02-05T00:28:09.322Z,2
2019-02-05T00:29:09.398Z,2
2019-02-05T00:30:09.371Z,2
2019-02-05T00:31:09.299Z,2
2019-02-05T00:32:09.299Z,2
2019-02-05T00:33:09.393Z,2
2019-02-05T00:34:09.328Z,2
2019-02-05T00:38:09.498Z,2
2019-02-05T00:39:09.494Z,2
2019-02-05T00:41:09.313Z,2
2019-02-05T00:42:09.371Z,2
2019-02-05T00:43:09.540Z,2
2019-02-05T00:44:09.357Z,2
2019-02-05T00:45:09.388Z,2
2019-02-05T00:46:09.328Z,2
2019-02-05T00:47:09.342Z,2
2019-02-05T00:48:09.334Z,2
2019-02-05T00:49:09.298Z,2
2019-02-05T00:50:09.351Z,2
2019-02-05T00:51:09.381Z,2
2019-02-05T00:52:09.308Z,2
2019-02-05T00:53:09.555Z,2
2019-02-05T00:54:09.300Z,2
2019-02-05T00:55:09.407Z,2
2019-02-05T00:56:17.327Z,2
2019-02-05T00:57:09.330Z,2
2019-02-05T00:58:09.311Z,2
2019-02-05T00:59:09.299Z,2
2019-02-05T01:00:09.332Z,2
2019-02-05T01:01:09.453Z,2
2019-02-05T01:02:09.334Z,2
2019-02-05T01:03:09.309Z,2
2019-02-05T01:04:09.331Z,2
2019-02-05T01:05:09.339Z,2
2019-02-05T01:06:09.363Z,2
2019-02-05T01:07:09.312Z,2
2019-02-05T01:08:09.325Z,2
2019-02-05T01:09:09.310Z,2
2019-02-05T01:10:09.355Z,2
2019-02-05T01:11:09.292Z,2
2019-02-05T01:12:09.298Z,2
2019-02-05T01:13:09.302Z,2
2019-02-05T01:14:09.497Z,2
2019-02-05T01:15:09.311Z,2
2019-02-05T01:16:09.311Z,2
2019-02-05T01:17:09.360Z,2
2019-02-05T01:18:09.506Z,2
2019-02-05T01:19:09.380Z,2
2019-02-05T01:20:09.309Z,2
2019-02-05T01:21:09.319Z,2
2019-02-05T01:22:09.313Z,2
2019-02-05T01:23:09.351Z,2
2019-02-05T01:24:09.355Z,2
2019-02-05T01:25:09.351Z,2
2019-02-05T01:26:09.373Z,2
2019-02-05T01:27:09.389Z,2
2019-02-05T01:28:09.365Z,2
2019-02-05T01:29:09.427Z,2
2019-02-05T01:30:09.410Z,2
2019-02-05T01:31:09.339Z,2
2019-02-05T01:32:09.375Z,2
2019-02-05T01:33:09.318Z,2
2019-02-05T01:34:09.378Z,2
2019-02-05T01:35:09.336Z,2
2019-02-05T01:36:09.339Z,2
2019-02-05T01:37:09.365Z,2
2019-02-05T01:38:09.298Z,2
2019-02-05T01:39:09.333Z,2
2019-02-05T01:40:09.357Z,2
2019-02-05T01:41:09.302Z,2
2019-02-05T01:42:09.503Z,2
2019-02-05T01:43:09.479Z,2
2019-02-05T01:44:09.321Z,2
2019-02-05T01:45:09.499Z,2
2019-02-05T01:47:09.389Z,2
2019-02-05T01:48:09.352Z,2
2019-02-05T01:49:09.408Z,2
2019-02-05T01:50:09.363Z,2
2019-02-05T01:51:09.307Z,2
2019-02-05T01:52:09.311Z,2
2019-02-05T01:53:09.318Z,2
2019-02-05T01:54:09.360Z,2
2019-02-05T01:55:09.388Z,2
2019-02-05T01:56:09.305Z,2
2019-02-05T01:57:09.371Z,2
2019-02-05T01:58:09.365Z,2
2019-02-05T01:59:09.314Z,2
2019-02-05T02:00:09.460Z,2
2019-02-05T02:01:09.362Z,2
2019-02-05T02:02:09.301Z,2
2019-02-05T02:03:09.305Z,2
2019-02-05T02:04:09.306Z,2
2019-02-05T02:05:09.306Z,2
2019-02-05T02:06:09.357Z,2
2019-02-05T02:07:09.358Z,2
2019-02-05T02:08:09.343Z,2
2019-02-05T02:09:09.311Z,2
2019-02-05T02:10:09.303Z,2
2019-02-05T02:11:09.346Z,2
2019-02-05T02:12:09.349Z,2
2019-02-05T02:13:09.359Z,2
2019-02-05T02:14:09.309Z,2
2019-02-05T02:15:09.310Z,2
2019-02-05T02:16:09.309Z,2
2019-02-05T02:17:09.405Z,2
2019-02-05T02:18:09.347Z,2
2019-02-05T02:19:09.328Z,2
2019-02-05T02:20:09.324Z,2
2019-02-05T02:21:09.323Z,2
2019-02-05T02:22:09.347Z,2
2019-02-05T02:23:09.366Z,2
2019-02-05T02:24:09.323Z,2
2019-02-05T02:25:09.338Z,2
2019-02-05T02:26:09.321Z,2
2019-02-05T02:27:09.346Z,2
2019-02-05T02:28:09.456Z,2
2019-02-05T02:29:09.399Z,2
2019-02-05T02:30:09.413Z,2
2019-02-05T02:31:09.713Z,2
2019-02-05T02:32:09.421Z,2
2019-02-05T02:33:09.361Z,2
2019-02-05T02:34:09.563Z,2
2019-02-05T02:35:09.388Z,2
2019-02-05T02:36:09.769Z,2
2019-02-05T02:37:09.371Z,2
2019-02-05T02:38:09.417Z,2
2019-02-05T02:39:09.367Z,2
2019-02-05T02:40:09.489Z,2
2019-02-05T02:41:09.322Z,2
2019-02-05T02:42:09.372Z,2
2019-02-05T02:43:09.302Z,2
2019-02-05T02:44:09.302Z,2
2019-02-05T02:45:09.352Z,2
2019-02-05T02:46:09.302Z,2
2019-02-05T02:47:09.368Z,2
2019-02-05T02:48:09.300Z,2
2019-02-05T02:49:09.414Z,2
2019-02-05T02:50:09.294Z,2
2019-02-05T02:51:09.349Z,2
2019-02-05T02:52:09.324Z,2
2019-02-05T02:53:09.365Z,2
2019-02-05T02:54:09.332Z,2
2019-02-05T02:55:09.328Z,2
2019-02-05T02:56:09.303Z,2
2019-02-05T02:57:09.311Z,2
2019-02-05T02:58:09.346Z,2
2019-02-05T02:59:09.360Z,2
2019-02-05T03:00:09.335Z,2
2019-02-05T03:01:09.353Z,2
2019-02-05T03:02:09.373Z,2
2019-02-05T03:03:09.310Z,2
2019-02-05T03:04:09.358Z,2
2019-02-05T03:05:09.320Z,2
2019-02-05T03:06:09.381Z,2
2019-02-05T03:07:09.312Z,2
2019-02-05T03:08:09.344Z,2
2019-02-05T03:09:09.302Z,2
2019-02-05T03:10:09.330Z,2
2019-02-05T03:11:09.423Z,2
2019-02-05T03:12:09.365Z,2
2019-02-05T03:13:09.362Z,2
2019-02-05T03:14:09.359Z,2
2019-02-05T03:15:09.327Z,2
2019-02-05T03:16:09.322Z,2
2019-02-05T03:17:09.320Z,2
2019-02-05T03:18:09.352Z,2
2019-02-05T03:19:09.455Z,2
2019-02-05T03:20:09.335Z,2
2019-02-05T03:21:09.312Z,2
2019-02-05T03:22:09.335Z,2
2019-02-05T03:23:09.424Z,2
2019-02-05T03:24:09.391Z,2
2019-02-05T03:25:09.331Z,2
2019-02-05T03:26:09.312Z,2
2019-02-05T03:27:17.152Z,2
2019-02-05T03:28:09.353Z,2
2019-02-05T03:29:09.403Z,2
2019-02-05T03:30:09.405Z,2
2019-02-05T03:31:09.323Z,2
2019-02-05T03:32:09.403Z,2
2019-02-05T03:33:09.351Z,2
2019-02-05T03:34:09.373Z,2
2019-02-05T03:35:09.379Z,2
2019-02-05T03:36:09.471Z,2
2019-02-05T03:37:09.363Z,2
2019-02-05T03:38:09.526Z,2
2019-02-05T03:39:09.344Z,2
2019-02-05T03:40:09.343Z,2
2019-02-05T03:41:09.418Z,2
2019-02-05T03:42:09.407Z,2
2019-02-05T03:43:09.742Z,2
2019-02-05T03:44:09.318Z,2
2019-02-05T03:45:09.333Z,2
2019-02-05T03:46:09.340Z,2
2019-02-05T03:47:09.358Z,2
2019-02-05T03:48:09.461Z,2
2019-02-05T03:49:09.373Z,2
2019-02-05T03:50:09.389Z,2
2019-02-05T03:51:09.373Z,2
2019-02-05T03:52:09.300Z,2
2019-02-05T03:53:09.396Z,2
2019-02-05T03:54:09.397Z,2
2019-02-05T03:55:09.368Z,2
2019-02-05T03:56:09.317Z,2
2019-02-05T03:57:09.428Z,2
2019-02-05T03:58:09.336Z,2
2019-02-05T03:59:09.683Z,2
2019-02-05T04:00:09.388Z,2
2019-02-05T04:01:09.366Z,2
2019-02-05T04:02:09.325Z,2
2019-02-05T04:03:09.333Z,2
2019-02-05T04:04:09.390Z,3
2019-02-05T04:05:09.424Z,2
2019-02-05T04:06:09.503Z,2
2019-02-05T04:07:09.338Z,2
2019-02-05T04:08:09.306Z,2
2019-02-05T04:12:09.400Z,2
2019-02-05T04:13:09.301Z,2
2019-02-05T04:14:09.301Z,3
2019-02-05T04:15:09.303Z,2
2019-02-05T04:16:09.314Z,3
2019-02-05T04:17:09.359Z,3
2019-02-05T04:18:09.384Z,3
2019-02-05T04:19:09.326Z,3
2019-02-05T04:20:09.310Z,3
2019-02-05T04:21:09.384Z,3
2019-02-05T04:22:09.333Z,3
2019-02-05T04:23:09.373Z,3
2019-02-05T04:24:09.376Z,3
2019-02-05T04:25:09.300Z,3
2019-02-05T04:26:09.312Z,3
2019-02-05T04:27:09.316Z,3
2019-02-05T04:28:09.307Z,3
2019-02-05T04:29:09.374Z,3
2019-02-05T04:30:09.425Z,3
2019-02-05T04:31:09.493Z,3
2019-02-05T04:32:09.294Z,3
2019-02-05T04:33:09.318Z,3
2019-02-05T04:34:09.374Z,3
2019-02-05T04:35:09.316Z,3
2019-02-05T04:36:09.443Z,3
2019-02-05T04:37:09.347Z,3
2019-02-05T04:38:09.325Z,3
2019-02-05T04:39:09.353Z,3
2019-02-05T04:40:09.342Z,3
2019-02-05T04:41:09.354Z,3
2019-02-05T04:42:09.307Z,3
2019-02-05T04:43:09.330Z,3
2019-02-05T04:44:09.378Z,3
2019-02-05T04:45:09.350Z,3
2019-02-05T04:46:09.372Z,3
2019-02-05T04:47:09.308Z,3
2019-02-05T04:48:09.382Z,3
2019-02-05T04:49:09.349Z,3
2019-02-05T04:50:09.303Z,3
2019-02-05T04:51:09.365Z,3
2019-02-05T04:52:09.318Z,3
2019-02-05T04:53:09.315Z,3
2019-02-05T04:54:09.326Z,3
2019-02-05T04:55:09.424Z,3
2019-02-05T04:56:09.367Z,3
2019-02-05T04:57:09.362Z,3
2019-02-05T04:58:09.416Z,3
2019-02-05T04:59:09.308Z,3
2019-02-05T05:00:09.355Z,3
2019-02-05T05:01:09.372Z,3
2019-02-05T05:02:09.358Z,3
2019-02-05T05:03:09.384Z,3
2019-02-05T05:04:09.313Z,3
2019-02-05T05:05:09.297Z,3
2019-02-05T05:06:09.311Z,3
2019-02-05T05:07:09.342Z,3
2019-02-05T05:08:09.364Z,3
2019-02-05T05:09:09.301Z,3
2019-02-05T05:10:09.309Z,3
2019-02-05T05:11:09.337Z,3
2019-02-05T05:12:09.360Z,3
2019-02-05T05:13:09.359Z,3
2019-02-05T05:16:09.316Z,3
2019-02-05T05:17:09.365Z,3
2019-02-05T05:18:09.318Z,3
2019-02-05T05:19:09.294Z,3
2019-02-05T05:20:09.295Z,3
2019-02-05T05:21:09.323Z,3
2019-02-05T05:22:09.350Z,3
2019-02-05T05:23:09.388Z,3
2019-02-05T05:24:09.308Z,3
2019-02-05T05:25:09.328Z,3
2019-02-05T05:26:09.298Z,3
2019-02-05T05:27:09.390Z,3
2019-02-05T05:28:10.047Z,3
2019-02-05T05:29:09.320Z,3
2019-02-05T05:30:09.342Z,3
2019-02-05T05:31:09.304Z,3
2019-02-05T05:32:09.297Z,3
2019-02-05T05:33:09.386Z,3
2019-02-05T05:34:09.324Z,3
2019-02-05T05:35:09.341Z,3
2019-02-05T05:36:09.331Z,3
2019-02-05T05:37:09.322Z,3
2019-02-05T05:38:09.397Z,3
2019-02-05T05:39:09.339Z,3
2019-02-05T05:40:09.322Z,3
2019-02-05T05:41:09.324Z,3
2019-02-05T05:42:09.338Z,3
2019-02-05T05:43:09.392Z,3
2019-02-05T05:44:09.668Z,3
2019-02-05T05:45:09.366Z,3
2019-02-05T05:46:09.375Z,3
2019-02-05T05:47:09.389Z,3
2019-02-05T05:48:09.400Z,3
2019-02-05T05:49:09.481Z,3
2019-02-05T05:50:09.344Z,3
2019-02-05T05:51:09.368Z,3
2019-02-05T05:52:09.340Z,3
2019-02-05T05:53:09.327Z,3
2019-02-05T05:54:09.480Z,3
2019-02-05T05:55:09.302Z,3
2019-02-05T05:56:09.307Z,3
2019-02-05T05:57:09.331Z,3
2019-02-05T05:58:21.897Z,3
2019-02-05T05:59:09.342Z,3
2019-02-05T06:00:09.302Z,3
2019-02-05T06:01:09.321Z,3
2019-02-05T06:02:09.407Z,3
2019-02-05T06:03:09.317Z,3
2019-02-05T06:04:09.401Z,3
2019-02-05T06:05:09.311Z,3
2019-02-05T06:06:09.320Z,3
2019-02-05T06:07:09.299Z,3
2019-02-05T06:08:09.318Z,3
2019-02-05T06:09:09.339Z,3
2019-02-05T06:10:09.360Z,3
2019-02-05T06:11:09.307Z,3
2019-02-05T06:12:09.307Z,3
2019-02-05T06:15:09.353Z,3
2019-02-05T06:16:09.372Z,4
2019-02-05T06:17:09.368Z,3
2019-02-05T06:18:09.301Z,3
2019-02-05T06:19:09.333Z,3
2019-02-05T06:20:09.319Z,3
2019-02-05T06:21:09.473Z,3
2019-02-05T06:22:09.369Z,3
2019-02-05T06:23:09.399Z,3
2019-02-05T06:24:09.361Z,3
2019-02-05T06:25:09.470Z,3
2019-02-05T06:26:09.549Z,3
2019-02-05T06:27:09.358Z,3
2019-02-05T06:28:09.314Z,3
2019-02-05T06:29:09.409Z,3
2019-02-05T06:30:09.344Z,3
2019-02-05T06:31:09.482Z,3
2019-02-05T06:32:09.343Z,3
2019-02-05T06:33:09.415Z,4
2019-02-05T06:34:09.353Z,4
2019-02-05T06:35:09.380Z,4
2019-02-05T06:36:09.419Z,4
2019-02-05T06:37:09.380Z,5
2019-02-05T06:38:09.378Z,3
2019-02-05T06:39:09.426Z,3
2019-02-05T06:40:09.400Z,4
2019-02-05T06:41:09.448Z,4
2019-02-05T06:42:09.371Z,3
2019-02-05T06:43:09.312Z,3
2019-02-05T06:44:09.383Z,3
2019-02-05T06:45:09.300Z,3
2019-02-05T06:46:09.317Z,3
2019-02-05T06:47:09.300Z,4
2019-02-05T06:48:09.562Z,4
2019-02-05T06:49:09.413Z,5
2019-02-05T06:50:10.853Z,7
2019-02-05T06:51:09.495Z,8
2019-02-05T06:52:09.578Z,5
2019-02-05T06:53:10.020Z,12
2019-02-05T06:54:09.318Z,8
2019-02-05T06:55:09.411Z,7
2019-02-05T06:56:09.303Z,6
2019-02-05T06:57:09.358Z,5
2019-02-05T06:58:09.323Z,4
2019-02-05T06:59:09.306Z,4
2019-02-05T07:00:09.336Z,4
2019-02-05T07:01:09.322Z,4
2019-02-05T07:02:09.336Z,4
2019-02-05T07:03:09.399Z,4
2019-02-05T07:04:09.368Z,4
2019-02-05T07:05:09.353Z,6
2019-02-05T07:06:09.310Z,6
2019-02-05T07:07:09.302Z,6
2019-02-05T07:08:09.350Z,6
2019-02-05T07:09:09.388Z,4
2019-02-05T07:10:09.332Z,5
2019-02-05T07:11:09.450Z,5
2019-02-05T07:12:09.307Z,4
2019-02-05T07:13:09.397Z,4
2019-02-05T07:14:09.499Z,6
2019-02-05T07:15:09.622Z,6
2019-02-05T07:16:09.760Z,9
2019-02-05T07:17:09.519Z,8
2019-02-05T07:18:09.444Z,7
2019-02-05T07:19:09.300Z,6
2019-02-05T07:20:09.992Z,8
2019-02-05T07:21:09.368Z,6
2019-02-05T07:22:09.500Z,7
2019-02-05T07:23:09.300Z,5
2019-02-05T07:24:09.297Z,6
2019-02-05T07:25:09.338Z,6
2019-02-05T07:26:09.381Z,6
2019-02-05T07:27:09.404Z,6
2019-02-05T07:28:09.552Z,6
2019-02-05T07:29:09.320Z,5
2019-02-05T07:30:09.423Z,5
2019-02-05T07:31:09.346Z,5
2019-02-05T07:32:09.315Z,5
2019-02-05T07:33:09.494Z,5
2019-02-05T07:34:09.345Z,5
2019-02-05T07:35:09.306Z,6
2019-02-05T07:36:09.333Z,5
2019-02-05T07:37:09.471Z,5
2019-02-05T07:38:09.456Z,5
2019-02-05T07:39:09.429Z,5
2019-02-05T07:40:11.341Z,5
2019-02-05T07:41:09.306Z,5
2019-02-05T07:42:09.297Z,5
2019-02-05T07:43:09.377Z,5
2019-02-05T07:44:09.295Z,5
2019-02-05T07:45:09.309Z,5
2019-02-05T07:46:09.338Z,5
2019-02-05T07:47:09.296Z,5
2019-02-05T07:48:09.564Z,5
2019-02-05T07:49:09.337Z,5
2019-02-05T07:50:09.304Z,5
2019-02-05T07:51:09.372Z,5
2019-02-05T07:52:09.383Z,5
2019-02-05T07:53:09.321Z,5
2019-02-05T07:54:09.543Z,5
2019-02-05T07:55:09.770Z,4
2019-02-05T07:56:09.582Z,4
2019-02-05T07:57:09.374Z,4
2019-02-05T07:58:09.973Z,4
2019-02-05T07:59:10.506Z,4
2019-02-05T08:00:09.447Z,4
2019-02-05T08:01:09.553Z,4
2019-02-05T08:02:09.927Z,5
2019-02-05T08:03:09.502Z,4
2019-02-05T08:04:09.688Z,5
2019-02-05T08:05:09.393Z,5
2019-02-05T08:06:09.720Z,4
2019-02-05T08:07:09.345Z,3
2019-02-05T08:08:09.484Z,4
2019-02-05T08:09:09.475Z,4
2019-02-05T08:10:09.351Z,4
2019-02-05T08:11:09.690Z,4
2019-02-05T08:12:09.394Z,5
2019-02-05T08:13:09.452Z,5
2019-02-05T08:14:09.426Z,4
2019-02-05T08:15:09.351Z,4
2019-02-05T08:16:09.340Z,4
2019-02-05T08:17:09.363Z,4
2019-02-05T08:18:09.407Z,4
2019-02-05T08:19:09.521Z,4
2019-02-05T08:20:09.361Z,4
2019-02-05T08:21:09.401Z,4
2019-02-05T08:22:09.731Z,4
2019-02-05T08:23:09.355Z,3
2019-02-05T08:24:09.330Z,3
2019-02-05T08:25:09.555Z,3
2019-02-05T08:26:09.413Z,3
2019-02-05T08:27:09.394Z,4
2019-02-05T08:28:09.329Z,4
2019-02-05T08:29:09.374Z,4
2019-02-05T08:30:09.356Z,5
2019-02-05T08:31:09.315Z,4
2019-02-05T08:32:09.424Z,4
2019-02-05T08:33:09.324Z,4
2019-02-05T08:34:09.305Z,3
2019-02-05T08:35:09.324Z,3
2019-02-05T08:36:09.306Z,2
2019-02-05T08:37:09.366Z,2
2019-02-05T08:38:09.499Z,2
2019-02-05T08:39:09.318Z,2
2019-02-05T08:40:09.438Z,4
2019-02-05T08:41:09.315Z,4
2019-02-05T08:42:10.322Z,5
2019-02-05T08:43:10.374Z,5
2019-02-05T08:44:09.323Z,3
2019-02-05T08:45:09.334Z,4
2019-02-05T08:46:09.385Z,4
2019-02-05T08:47:09.514Z,3
2019-02-05T08:48:09.301Z,3
2019-02-05T08:49:09.706Z,4
2019-02-05T08:50:09.683Z,5
2019-02-05T08:51:09.350Z,4
2019-02-05T08:52:09.368Z,4
2019-02-05T08:53:09.570Z,4
2019-02-05T08:54:09.304Z,3
2019-02-05T08:55:09.830Z,3
2019-02-05T08:56:09.383Z,2
2019-02-05T08:57:09.307Z,3
2019-02-05T08:58:09.313Z,3
2019-02-05T08:59:09.576Z,3
2019-02-05T09:00:09.304Z,3
2019-02-05T09:01:09.297Z,3
2019-02-05T09:02:09.539Z,4
2019-02-05T09:03:09.320Z,4
2019-02-05T09:04:09.390Z,3
2019-02-05T09:05:09.361Z,3
2019-02-05T09:06:09.357Z,3
2019-02-05T09:07:09.321Z,3
2019-02-05T09:08:09.316Z,3
2019-02-05T09:09:09.396Z,3
2019-02-05T09:10:09.353Z,3
2019-02-05T09:11:09.320Z,3
2019-02-05T09:12:09.322Z,3
2019-02-05T09:13:09.381Z,4
2019-02-05T09:14:10.931Z,4
2019-02-05T09:15:09.376Z,3
2019-02-05T09:16:09.315Z,3
2019-02-05T09:17:09.299Z,3
2019-02-05T09:18:09.307Z,3
2019-02-05T09:19:09.354Z,3
2019-02-05T09:20:09.328Z,3
2019-02-05T09:21:09.361Z,3
2019-02-05T09:22:09.306Z,3
2019-02-05T09:23:09.380Z,3
2019-02-05T09:24:09.353Z,3
2019-02-05T09:25:09.315Z,3
2019-02-05T09:26:09.368Z,3
2019-02-05T09:27:09.337Z,3
2019-02-05T09:28:09.527Z,3
2019-02-05T09:29:09.348Z,3
2019-02-05T09:30:09.340Z,3
2019-02-05T09:31:09.546Z,3
2019-02-05T09:33:09.389Z,3
2019-02-05T09:34:09.531Z,3
2019-02-05T09:35:09.316Z,3
2019-02-05T09:36:09.454Z,3
2019-02-05T09:37:09.320Z,3
2019-02-05T09:38:09.333Z,3
2019-02-05T09:39:09.417Z,3
2019-02-05T09:40:09.368Z,3
2019-02-05T09:41:09.473Z,3
2019-02-05T09:42:09.324Z,3
2019-02-05T09:43:09.306Z,3
2019-02-05T09:44:09.351Z,3
2019-02-05T09:45:09.371Z,3
2019-02-05T09:46:09.688Z,3
2019-02-05T09:47:09.560Z,3
2019-02-05T09:48:09.359Z,3
2019-02-05T09:49:09.395Z,4
2019-02-05T09:50:09.433Z,3
2019-02-05T09:51:09.420Z,3
2019-02-05T09:52:09.382Z,3
2019-02-05T09:53:09.360Z,3
2019-02-05T09:54:09.334Z,3
2019-02-05T09:55:09.340Z,3
2019-02-05T09:56:09.377Z,3
2019-02-05T09:57:09.442Z,3
2019-02-05T09:58:09.621Z,3
2019-02-05T09:59:09.393Z,3
2019-02-05T10:00:09.364Z,3
2019-02-05T10:01:09.378Z,3
2019-02-05T10:02:09.413Z,3
2019-02-05T10:03:09.503Z,3
2019-02-05T10:04:09.350Z,3
2019-02-05T10:05:09.328Z,3
2019-02-05T10:06:09.431Z,3
2019-02-05T10:07:09.375Z,3
2019-02-05T10:08:09.460Z,3
2019-02-05T10:09:09.316Z,3
2019-02-05T10:10:09.322Z,3
2019-02-05T10:11:09.325Z,3
2019-02-05T10:12:09.689Z,3
2019-02-05T10:13:09.356Z,3
2019-02-05T10:14:09.366Z,3
2019-02-05T10:15:09.312Z,3
2019-02-05T10:16:09.407Z,3
2019-02-05T10:17:09.313Z,3
2019-02-05T10:18:09.717Z,3
2019-02-05T10:19:09.433Z,3
2019-02-05T10:20:09.338Z,3
2019-02-05T10:21:09.341Z,3
2019-02-05T10:22:09.568Z,3
2019-02-05T10:23:09.394Z,3
2019-02-05T10:24:09.485Z,3
2019-02-05T10:25:09.489Z,3
2019-02-05T10:26:09.368Z,4
2019-02-05T10:27:09.405Z,3
2019-02-05T10:28:09.452Z,3
2019-02-05T10:29:09.426Z,3
2019-02-05T10:30:09.337Z,3
2019-02-05T10:31:09.353Z,3
2019-02-05T10:32:09.381Z,3
2019-02-05T10:33:09.310Z,3
2019-02-05T10:34:09.321Z,3
2019-02-05T10:35:09.363Z,3
2019-02-05T10:36:09.316Z,3
2019-02-05T10:37:09.363Z,3
2019-02-05T10:38:09.385Z,3
2019-02-05T10:39:09.329Z,3
2019-02-05T10:40:09.360Z,3
2019-02-05T10:41:09.314Z,3
2019-02-05T10:42:09.358Z,4
2019-02-05T10:43:09.306Z,4
2019-02-05T10:44:09.337Z,5
2019-02-05T10:45:09.380Z,5
2019-02-05T10:46:09.339Z,5
2019-02-05T10:47:09.298Z,5
2019-02-05T10:48:10.520Z,5
2019-02-05T10:49:09.302Z,5
2019-02-05T10:50:09.372Z,4
2019-02-05T10:51:09.379Z,4
2019-02-05T10:52:09.361Z,4
2019-02-05T10:53:09.332Z,4
2019-02-05T10:55:09.354Z,3
2019-02-05T10:56:09.331Z,3
2019-02-05T10:57:09.375Z,3
2019-02-05T10:58:09.296Z,3
2019-02-05T10:59:09.309Z,3
2019-02-05T11:00:09.406Z,3
2019-02-05T11:01:09.354Z,3
2019-02-05T11:02:09.408Z,3
2019-02-05T11:03:09.324Z,3
2019-02-05T11:04:09.408Z,3
2019-02-05T11:05:09.372Z,4
2019-02-05T11:06:09.346Z,3
2019-02-05T11:07:09.447Z,3
2019-02-05T11:08:09.400Z,3
2019-02-05T11:09:09.361Z,4
2019-02-05T11:10:09.372Z,4
2019-02-05T11:11:09.481Z,4
2019-02-05T11:12:09.412Z,4
2019-02-05T11:13:10.701Z,4
2019-02-05T11:14:09.898Z,5
2019-02-05T11:15:09.451Z,4
2019-02-05T11:16:09.527Z,4
2019-02-05T11:17:09.391Z,4
2019-02-05T11:18:09.407Z,4
2019-02-05T11:19:09.362Z,4
2019-02-05T11:20:09.352Z,4
2019-02-05T11:21:09.415Z,3
2019-02-05T11:22:09.416Z,3
2019-02-05T11:23:09.522Z,3
2019-02-05T11:24:09.299Z,3
2019-02-05T11:25:09.312Z,3
2019-02-05T11:26:09.441Z,3
2019-02-05T11:27:09.622Z,3
2019-02-05T11:28:09.363Z,3
2019-02-05T11:29:09.305Z,3
2019-02-05T11:30:19.722Z,3
2019-02-05T11:31:09.302Z,3
2019-02-05T11:32:09.351Z,3
2019-02-05T11:33:09.368Z,3
2019-02-05T11:34:09.450Z,3
2019-02-05T11:35:09.317Z,4
2019-02-05T11:36:09.320Z,3
2019-02-05T11:37:09.358Z,4
2019-02-05T11:41:09.356Z,4
2019-02-05T11:42:09.311Z,4
2019-02-05T11:43:10.567Z,4
2019-02-05T11:44:09.310Z,3
2019-02-05T11:45:09.330Z,3
2019-02-05T11:46:09.404Z,4
2019-02-05T11:47:09.357Z,3
2019-02-05T11:48:09.302Z,3
2019-02-05T11:49:09.343Z,3
2019-02-05T11:50:09.308Z,3
2019-02-05T11:51:09.353Z,3
2019-02-05T11:52:09.973Z,3
2019-02-05T11:53:09.344Z,3
2019-02-05T11:54:09.352Z,3
2019-02-05T11:55:09.593Z,3
2019-02-05T11:56:18.160Z,5
2019-02-05T11:58:24.509Z,8
2019-02-05T11:59:11.200Z,9
2019-02-05T12:00:15.082Z,11
2019-02-05T12:01:16.699Z,11
2019-02-05T12:02:23.807Z,10
2019-02-05T12:03:18.043Z,10
2019-02-05T12:04:09.775Z,10
2019-02-05T12:05:09.809Z,10
2019-02-05T12:06:10.149Z,7
2019-02-05T12:07:09.246Z,2
2019-02-05T12:08:10.042Z,3
2019-02-05T12:09:09.151Z,2
2019-02-05T12:10:09.101Z,2
2019-02-05T12:11:09.080Z,2
2019-02-05T12:12:09.079Z,2
2019-02-05T12:13:09.020Z,2
2019-02-05T12:14:09.107Z,2
2019-02-05T12:15:08.994Z,2
2019-02-05T12:16:08.935Z,2
2019-02-05T12:17:08.943Z,2
2019-02-05T12:18:08.931Z,2
2019-02-05T12:19:09.050Z,2
2019-02-05T12:20:09.076Z,2
2019-02-05T12:21:09.018Z,3
2019-02-05T12:22:09.170Z,3
2019-02-05T12:23:09.127Z,3
2019-02-05T12:24:09.668Z,4
2019-02-05T12:25:09.195Z,2
2019-02-05T12:26:09.222Z,2
2019-02-05T12:27:09.211Z,2
2019-02-05T12:28:09.302Z,2
2019-02-05T12:29:09.267Z,2
2019-02-05T12:30:09.300Z,2
2019-02-05T12:31:09.377Z,2
2019-02-05T12:32:09.316Z,2
2019-02-05T12:33:09.347Z,2
2019-02-05T12:34:09.328Z,2
2019-02-05T12:35:09.392Z,2
2019-02-05T12:36:09.368Z,2
2019-02-05T12:37:09.308Z,2
2019-02-05T12:38:09.348Z,2
2019-02-05T12:39:09.308Z,2
2019-02-05T12:40:09.412Z,2
2019-02-05T12:41:09.407Z,2
2019-02-05T12:42:09.318Z,2
2019-02-05T12:43:09.363Z,2
2019-02-05T12:44:09.401Z,2
2019-02-05T12:45:09.300Z,2
2019-02-05T12:46:09.386Z,2
2019-02-05T12:53:09.351Z,3
2019-02-05T12:54:09.629Z,2
2019-02-05T14:35:09.371Z,3
2019-02-05T14:36:09.375Z,3
2019-02-05T14:37:09.323Z,3
2019-02-05T14:38:09.364Z,2
2019-02-05T14:39:09.460Z,2
2019-02-05T14:40:09.339Z,3
2019-02-05T14:41:09.347Z,2
2019-02-05T14:42:09.306Z,2
2019-02-05T14:43:09.424Z,4
2019-02-05T14:44:09.542Z,4
2019-02-05T14:45:09.952Z,5
2019-02-05T14:46:13.165Z,5
2019-02-05T14:47:09.998Z,6
2019-02-05T14:48:09.641Z,6
2019-02-05T14:49:11.680Z,6
2019-02-05T14:50:10.921Z,6
2019-02-05T14:51:09.545Z,5
2019-02-05T14:52:09.322Z,2
2019-02-05T14:53:09.336Z,2
2019-02-05T14:54:09.415Z,2
2019-02-05T14:55:09.303Z,2
2019-02-05T14:56:09.382Z,3
2019-02-05T14:57:09.330Z,2
2019-02-05T14:58:09.298Z,2
2019-02-05T14:59:09.345Z,2
2019-02-05T15:00:09.301Z,3
2019-02-05T15:01:09.373Z,2
2019-02-05T15:02:09.301Z,2
2019-02-05T15:03:09.294Z,2
2019-02-05T15:04:09.303Z,2
2019-02-05T15:05:09.310Z,2
2019-02-05T15:06:09.355Z,2
2019-02-05T15:07:09.397Z,2
2019-02-05T15:08:09.328Z,2
2019-02-05T15:09:09.434Z,2
2019-02-05T15:10:09.299Z,2
2019-02-05T15:11:09.441Z,2
2019-02-05T15:12:09.322Z,2
2019-02-05T15:13:09.304Z,2
2019-02-05T15:14:09.307Z,2
2019-02-05T15:16:09.345Z,2
2019-02-05T15:17:09.329Z,2
2019-02-05T15:18:09.322Z,2
2019-02-05T15:19:09.392Z,2
2019-02-05T15:20:09.303Z,2
2019-02-05T15:21:09.345Z,2
2019-02-05T15:22:09.324Z,3
2019-02-05T15:23:09.330Z,2
2019-02-05T15:24:09.300Z,2
2019-02-05T15:25:09.548Z,2
2019-02-05T15:26:09.469Z,3
2019-02-05T15:27:09.308Z,4
2019-02-05T15:28:10.386Z,5
2019-02-05T15:29:10.233Z,5
2019-02-05T15:30:09.392Z,3
2019-02-05T15:31:09.426Z,4
2019-02-05T15:32:09.452Z,3
2019-02-05T15:33:09.307Z,3
2019-02-05T15:34:09.340Z,3
2019-02-05T15:35:09.373Z,2
2019-02-05T15:36:09.333Z,2
2019-02-05T15:37:09.349Z,2
2019-02-05T15:38:09.306Z,2
2019-02-05T15:39:09.433Z,2
2019-02-05T15:40:09.347Z,2
2019-02-05T15:41:09.350Z,2
2019-02-05T15:42:09.300Z,2
2019-02-05T15:43:09.369Z,2
2019-02-05T15:44:09.314Z,2
2019-02-05T15:45:09.347Z,2
2019-02-05T15:46:09.359Z,2
2019-02-05T15:47:09.363Z,2
2019-02-05T15:48:09.300Z,2
2019-02-05T15:49:09.450Z,2
2019-02-05T15:50:09.308Z,2
2019-02-05T15:51:09.306Z,2
2019-02-05T15:52:09.362Z,2
2019-02-05T15:53:09.429Z,2
2019-02-05T15:54:09.339Z,3
2019-02-05T15:55:09.310Z,3
2019-02-05T15:56:09.435Z,3
2019-02-05T15:57:09.509Z,3
2019-02-05T15:58:09.422Z,2
2019-02-05T15:59:09.511Z,2
2019-02-05T16:00:09.672Z,2
2019-02-05T16:01:09.323Z,2
2019-02-05T16:02:09.305Z,2
2019-02-05T16:03:09.318Z,2
2019-02-05T16:04:09.350Z,2
2019-02-05T16:05:09.387Z,3
2019-02-05T16:06:09.422Z,2
2019-02-05T16:07:09.370Z,2
2019-02-05T16:08:09.407Z,2
2019-02-05T16:09:09.441Z,2
2019-02-05T16:10:09.332Z,2
2019-02-05T16:11:09.226Z,2
2019-02-05T16:12:09.137Z,2
2019-02-05T16:13:09.120Z,3
2019-02-05T16:14:09.120Z,2
2019-02-05T16:15:09.146Z,2
2019-02-05T16:16:09.162Z,2
2019-02-05T16:17:09.127Z,2
2019-02-05T16:18:09.165Z,2
2019-02-05T16:19:09.117Z,2
2019-02-05T16:20:09.165Z,2
2019-02-05T16:21:09.119Z,2
2019-02-05T16:22:09.214Z,2
2019-02-05T16:23:09.218Z,2
2019-02-05T16:24:09.287Z,2
2019-02-05T16:25:09.250Z,2
2019-02-05T16:26:09.277Z,2
2019-02-05T16:27:09.274Z,2
2019-02-05T16:28:09.276Z,2
2019-02-05T16:29:09.370Z,2
2019-02-05T16:30:09.305Z,2
2019-02-05T16:31:09.404Z,2
2019-02-05T16:32:17.219Z,2
2019-02-05T16:33:09.299Z,2
2019-02-05T16:34:09.293Z,2
2019-02-05T16:35:09.291Z,2
2019-02-05T16:36:09.320Z,2
2019-02-05T16:37:09.435Z,2
2019-02-05T16:38:09.357Z,2
2019-02-05T16:39:09.451Z,2
2019-02-05T16:40:09.384Z,2
2019-02-05T16:41:09.409Z,2
2019-02-05T16:42:09.559Z,2
2019-02-05T16:43:09.516Z,2
2019-02-05T16:44:09.428Z,2
2019-02-05T16:45:09.409Z,2
2019-02-05T16:46:09.410Z,2
2019-02-05T16:47:09.396Z,2
2019-02-05T16:48:09.500Z,2
2019-02-05T16:49:09.473Z,2
2019-02-05T16:50:09.444Z,2
2019-02-05T16:51:09.408Z,2
2019-02-05T16:52:09.414Z,2